Time;durP1;ratioP1;P1;durP2;ratioP2;P2;SDS_P1;SDS_P2;PMS_P1;PMS_P2;Temp;Humidity;BMP_temperature;BMP_pressure;BME280_temperature;BME280_humidity;BME280_pressure;Samples;Min_cycle;Max_cycle;Signal;HPM_P1;HPM_P2
2023/04/28 00:01:14;;;;;;;9.55;5.25;;;;;;;13.69;100.00;100205.28;5027432;28;20048;-78
2023/04/28 00:03:39;;;;;;;6.45;4.28;;;;;;;13.70;100.00;100200.53;5044505;28;20024;-77
2023/04/28 00:06:05;;;;;;;8.30;5.53;;;;;;;13.67;100.00;100206.75;5035555;28;20021;-77
2023/04/28 00:08:31;;;;;;;6.88;4.95;;;;;;;13.67;100.00;100199.22;5028159;28;20028;-77
2023/04/28 00:10:56;;;;;;;8.80;5.57;;;;;;;13.67;100.00;100201.19;5060709;28;20067;-77
2023/04/28 00:13:22;;;;;;;6.90;4.72;;;;;;;13.66;100.00;100193.97;5041035;28;20033;-77
2023/04/28 00:15:49;;;;;;;9.00;4.50;;;;;;;13.63;100.00;100187.88;5060187;28;20032;-77
2023/04/28 00:18:14;;;;;;;9.63;4.95;;;;;;;13.63;100.00;100182.28;5040594;28;20032;-77
2023/04/28 00:20:39;;;;;;;6.43;4.70;;;;;;;13.66;100.00;100185.59;5047419;28;20409;-77
2023/04/28 00:23:05;;;;;;;6.47;4.50;;;;;;;13.64;100.00;100192.31;5060900;28;20028;-77
2023/04/28 00:25:30;;;;;;;7.32;4.72;;;;;;;13.62;100.00;100188.19;5025224;28;20033;-77
2023/04/28 00:27:56;;;;;;;8.85;4.78;;;;;;;13.64;100.00;100186.72;5046649;28;20029;-77
2023/04/28 00:30:24;;;;;;;9.05;5.90;;;;;;;13.65;100.00;100182.00;5043906;28;20025;-77
2023/04/28 00:32:49;;;;;;;10.50;5.90;;;;;;;13.64;100.00;100191.47;5024483;28;20033;-77
2023/04/28 00:35:15;;;;;;;8.75;5.38;;;;;;;13.62;100.00;100186.25;5054709;28;20036;-77
2023/04/28 00:37:40;;;;;;;10.10;5.75;;;;;;;13.62;100.00;100177.88;5043684;28;20103;-77
2023/04/28 00:40:06;;;;;;;8.57;6.22;;;;;;;13.59;100.00;100172.91;5026271;28;20035;-77
2023/04/28 00:42:32;;;;;;;8.80;6.07;;;;;;;13.61;100.00;100170.63;5011929;28;20024;-77
2023/04/28 00:44:57;;;;;;;9.82;5.40;;;;;;;13.60;100.00;100169.00;5054573;28;20059;-78
2023/04/28 00:47:23;;;;;;;8.10;5.13;;;;;;;13.60;100.00;100169.00;5035944;28;20021;-77
2023/04/28 00:49:49;;;;;;;8.15;5.20;;;;;;;13.59;100.00;100156.16;5019734;28;20025;-78
2023/04/28 00:52:14;;;;;;;10.68;6.13;;;;;;;13.56;100.00;100170.78;5043804;28;20024;-78
2023/04/28 00:54:41;;;;;;;10.02;5.63;;;;;;;13.55;100.00;100166.34;5047453;28;20044;-78
2023/04/28 00:57:07;;;;;;;9.52;5.93;;;;;;;13.57;100.00;100177.19;5037008;28;20029;-78
2023/04/28 00:59:32;;;;;;;9.35;6.30;;;;;;;13.55;100.00;100176.69;5052979;28;20483;-78
2023/04/28 01:01:58;;;;;;;8.40;5.22;;;;;;;13.54;100.00;100175.88;5059527;28;20053;-77
2023/04/28 01:04:24;;;;;;;9.55;6.60;;;;;;;13.57;100.00;100166.03;5022834;28;20025;-77
2023/04/28 01:06:50;;;;;;;9.30;5.68;;;;;;;13.52;100.00;100157.81;5032097;28;20551;-78
2023/04/28 01:09:15;;;;;;;10.52;5.57;;;;;;;13.54;100.00;100170.28;5023552;28;20559;-78
2023/04/28 01:11:41;;;;;;;8.50;5.63;;;;;;;13.53;100.00;100173.38;5006891;28;20025;-78
2023/04/28 01:14:06;;;;;;;7.63;5.38;;;;;;;13.54;100.00;100164.72;5039993;28;20155;-77
2023/04/28 01:16:32;;;;;;;9.68;5.57;;;;;;;13.54;100.00;100166.66;5023048;28;20025;-77
2023/04/28 01:18:58;;;;;;;8.77;6.28;;;;;;;13.53;100.00;100171.41;5033216;28;20040;-77
2023/04/28 01:21:31;;;;;;;7.93;4.95;;;;;;;13.53;100.00;100160.25;5006680;28;20025;-77
2023/04/28 01:23:57;;;;;;;8.73;5.60;;;;;;;13.52;100.00;100161.41;5024519;28;20036;-77
2023/04/28 01:26:23;;;;;;;9.93;6.32;;;;;;;13.53;100.00;100174.22;5056288;28;20056;-77
2023/04/28 01:28:48;;;;;;;7.60;5.90;;;;;;;13.53;100.00;100165.84;5026390;28;20028;-77
2023/04/28 01:31:14;;;;;;;11.15;6.43;;;;;;;13.53;100.00;100160.25;5042400;28;20025;-77
2023/04/28 01:33:39;;;;;;;10.18;6.05;;;;;;;13.51;100.00;100157.00;5029659;28;20516;-78
2023/04/28 01:36:05;;;;;;;15.90;8.60;;;;;;;13.55;100.00;100173.91;5042688;28;20028;-78
2023/04/28 01:38:31;;;;;;;8.25;5.75;;;;;;;13.51;100.00;100168.16;5059209;28;20035;-77
2023/04/28 01:40:57;;;;;;;9.32;6.60;;;;;;;13.51;100.00;100168.16;5034774;28;20024;-78
2023/04/28 01:43:23;;;;;;;11.15;5.80;;;;;;;13.53;100.00;100171.41;5021085;28;20366;-77
2023/04/28 01:45:48;;;;;;;9.25;5.35;;;;;;;13.49;100.00;100172.41;5042642;28;20028;-77
2023/04/28 01:48:14;;;;;;;11.68;6.40;;;;;;;13.52;100.00;100174.53;5040787;28;20020;-77
2023/04/28 01:50:39;;;;;;;9.00;5.72;;;;;;;13.49;100.00;100184.38;5022825;28;20025;-78
2023/04/28 01:53:04;;;;;;;9.10;6.00;;;;;;;13.51;100.00;100176.50;5023634;28;20029;-77
2023/04/28 01:55:30;;;;;;;12.18;6.15;;;;;;;13.49;100.00;100170.44;5019733;28;20032;-78
2023/04/28 01:57:57;;;;;;;8.55;4.93;;;;;;;13.49;100.00;100181.59;5051816;28;20496;-77
2023/04/28 02:00:22;;;;;;;8.68;5.43;;;;;;;13.49;100.00;100178.78;5058836;28;20047;-78
2023/04/28 02:02:48;;;;;;;5.35;4.50;;;;;;;13.50;100.00;100172.06;5039093;28;20045;-77
2023/04/28 02:05:13;;;;;;;6.70;5.00;;;;;;;13.51;100.00;100170.94;5039901;28;20111;-78
2023/04/28 02:07:40;;;;;;;9.48;5.95;;;;;;;13.52;100.00;100171.75;5025703;28;20423;-77
2023/04/28 02:10:06;;;;;;;10.98;7.15;;;;;;;13.52;100.00;100178.16;5022659;28;20025;-77
2023/04/28 02:12:32;;;;;;;10.40;5.70;;;;;;;13.50;100.00;100177.63;5019210;28;20028;-77
2023/04/28 02:14:57;;;;;;;8.20;5.63;;;;;;;13.50;100.00;100168.47;5044792;28;20032;-77
2023/04/28 02:17:23;;;;;;;10.77;6.30;;;;;;;13.50;100.00;100174.84;5039253;28;20036;-77
2023/04/28 02:19:53;;;;;;;10.40;5.95;;;;;;;13.51;100.00;100175.66;5058503;28;20064;-77
2023/04/28 02:22:19;;;;;;;7.90;5.53;;;;;;;13.50;100.00;100172.06;5025727;28;20031;-77
2023/04/28 02:24:44;;;;;;;7.47;5.57;;;;;;;13.48;100.00;100171.56;5060811;28;20400;-77
2023/04/28 02:27:10;;;;;;;8.90;5.18;;;;;;;13.50;100.00;100166.47;5062096;28;20048;-77
2023/04/28 02:29:35;;;;;;;9.65;5.82;;;;;;;13.51;100.00;100176.50;5032313;28;20040;-77
2023/04/28 02:32:01;;;;;;;8.65;5.93;;;;;;;13.50;100.00;100174.03;5039451;28;20044;-77
2023/04/28 02:34:26;;;;;;;8.82;5.20;;;;;;;13.50;100.00;100183.22;5062245;28;20105;-77
2023/04/28 02:36:52;;;;;;;7.55;4.68;;;;;;;13.49;100.00;100172.41;5042929;28;20025;-78
2023/04/28 02:39:20;;;;;;;8.23;5.40;;;;;;;13.48;100.00;100177.13;5041662;28;20051;-78
2023/04/28 02:41:45;;;;;;;8.95;5.15;;;;;;;13.49;100.00;100183.56;5027241;28;20029;-77
2023/04/28 02:44:11;;;;;;;8.20;4.70;;;;;;;13.48;100.00;100179.91;5041889;28;20033;-78
2023/04/28 02:46:36;;;;;;;11.32;5.30;;;;;;;13.48;100.00;100182.72;5053945;28;20032;-78
2023/04/28 02:49:02;;;;;;;9.27;5.40;;;;;;;13.49;100.00;100183.56;5021487;28;20047;-77
2023/04/28 02:51:27;;;;;;;7.20;4.70;;;;;;;13.48;100.00;100179.09;5055854;28;20025;-78
2023/04/28 02:53:53;;;;;;;7.85;4.70;;;;;;;13.49;100.00;100177.97;5055545;28;20029;-77
2023/04/28 02:56:18;;;;;;;9.32;5.07;;;;;;;13.47;100.00;100175.50;5054904;28;20493;-77
2023/04/28 02:58:44;;;;;;;7.93;5.68;;;;;;;13.49;100.00;100170.44;5045228;28;20033;-77
2023/04/28 03:01:09;;;;;;;9.77;6.10;;;;;;;13.48;100.00;100177.13;5061501;28;20166;-78
2023/04/28 03:03:35;;;;;;;9.38;4.80;;;;;;;13.47;100.00;100169.09;5038719;28;20040;-78
2023/04/28 03:06:00;;;;;;;8.98;4.82;;;;;;;13.49;100.00;100173.22;5053521;28;20051;-78
2023/04/28 03:08:26;;;;;;;7.55;5.30;;;;;;;13.46;100.00;100167.47;5044933;28;20046;-77
2023/04/28 03:10:51;;;;;;;7.95;5.05;;;;;;;13.49;100.00;100169.59;5041682;28;20039;-78
2023/04/28 03:13:17;;;;;;;6.88;4.65;;;;;;;13.48;100.00;100165.97;5022154;28;20028;-78
2023/04/28 03:15:42;;;;;;;8.73;4.82;;;;;;;13.46;100.00;100168.28;5060709;28;20033;-77
2023/04/28 03:18:08;;;;;;;7.80;5.63;;;;;;;13.46;100.00;100167.47;5053879;28;20087;-78
2023/04/28 03:20:33;;;;;;;7.60;4.32;;;;;;;13.47;100.00;100164.34;5024884;28;20032;-77
2023/04/28 03:22:59;;;;;;;7.13;4.75;;;;;;;13.46;100.00;100168.28;5058034;28;20086;-78
2023/04/28 03:25:24;;;;;;;9.40;4.90;;;;;;;13.47;100.00;100169.09;5054490;28;20363;-78
2023/04/28 03:27:50;;;;;;;8.18;4.45;;;;;;;13.47;100.00;100169.91;5038183;28;20444;-78
2023/04/28 03:30:15;;;;;;;7.82;4.50;;;;;;;13.48;100.00;100168.75;5061464;28;20033;-78
2023/04/28 03:32:40;;;;;;;9.55;5.03;;;;;;;13.45;100.00;100172.19;5038697;28;20473;-78
2023/04/28 03:35:06;;;;;;;8.23;5.28;;;;;;;13.47;100.00;100175.50;5034234;28;20032;-77
2023/04/28 03:37:31;;;;;;;8.30;5.75;;;;;;;13.46;100.00;100179.44;5041185;28;20086;-77
2023/04/28 03:39:57;;;;;;;10.50;4.75;;;;;;;13.43;100.00;100177.31;5008990;28;20025;-77
2023/04/28 03:42:22;;;;;;;7.85;5.05;;;;;;;13.46;100.00;100173.06;5022143;28;20405;-77
2023/04/28 03:44:48;;;;;;;8.43;5.10;;;;;;;13.47;100.00;100174.69;5054597;28;20036;-78
2023/04/28 03:47:13;;;;;;;9.13;4.72;;;;;;;13.44;100.00;100173.34;5044884;28;20029;-77
2023/04/28 03:49:39;;;;;;;6.22;4.90;;;;;;;13.46;100.00;100175.84;5028398;28;20542;-78
2023/04/28 03:52:04;;;;;;;9.57;5.15;;;;;;;13.47;100.00;100169.09;5041498;28;20029;-77
2023/04/28 03:54:30;;;;;;;11.25;6.28;;;;;;;13.47;100.00;100166.31;5026600;28;20036;-77
2023/04/28 03:56:56;;;;;;;7.80;5.13;;;;;;;13.46;100.00;100170.25;5021250;28;20040;-77
2023/04/28 03:59:22;;;;;;;6.57;4.90;;;;;;;13.44;100.00;100169.75;5036896;28;20477;-77
2023/04/28 04:01:47;;;;;;;7.28;5.22;;;;;;;13.44;100.00;100176.16;5040904;28;20052;-77
2023/04/28 04:04:13;;;;;;;10.80;5.80;;;;;;;13.46;100.00;100178.63;5052783;28;20049;-77
2023/04/28 04:06:38;;;;;;;10.07;5.00;;;;;;;13.45;100.00;100175.00;5060528;28;20520;-77
2023/04/28 04:09:04;;;;;;;13.68;6.20;;;;;;;13.46;100.00;100179.44;5016820;28;20424;-78
2023/04/28 04:11:29;;;;;;;7.88;5.10;;;;;;;13.44;100.00;100175.31;5042460;28;20248;-77
2023/04/28 04:13:55;;;;;;;8.23;5.15;;;;;;;13.46;100.00;100173.06;5034816;28;20086;-77
2023/04/28 04:16:21;;;;;;;13.27;5.30;;;;;;;13.46;100.00;100179.44;5060825;28;20503;-77
2023/04/28 04:18:46;;;;;;;10.57;5.85;;;;;;;13.46;100.00;100181.41;5040991;28;20024;-77
2023/04/28 04:21:12;;;;;;;12.10;4.90;;;;;;;13.44;100.00;100176.16;5057255;28;20499;-77
2023/04/28 04:23:37;;;;;;;6.80;5.00;;;;;;;13.45;100.00;100176.97;5040870;28;20469;-77
2023/04/28 04:26:03;;;;;;;7.80;4.63;;;;;;;13.44;100.00;100178.94;5057302;28;20036;-77
2023/04/28 04:28:28;;;;;;;7.05;4.97;;;;;;;13.45;100.00;100176.97;5051337;28;20017;-77
2023/04/28 04:30:54;;;;;;;6.20;5.00;;;;;;;13.44;100.00;100170.56;5061560;28;20439;-77
2023/04/28 04:33:19;;;;;;;8.73;5.03;;;;;;;13.43;100.00;100174.50;5044203;28;20024;-77
2023/04/28 04:35:45;;;;;;;8.05;5.45;;;;;;;13.45;100.00;100171.38;5043694;28;20036;-77
2023/04/28 04:38:10;;;;;;;7.05;4.50;;;;;;;13.45;100.00;100175.00;5057271;28;20228;-77
2023/04/28 04:40:36;;;;;;;7.32;5.00;;;;;;;13.45;100.00;100183.34;5025848;28;20385;-77
2023/04/28 04:43:01;;;;;;;7.28;4.90;;;;;;;13.42;100.00;100186.78;5052111;28;20396;-77
2023/04/28 04:45:26;;;;;;;7.18;4.50;;;;;;;13.42;100.00;100178.44;5043767;28;20033;-77
2023/04/28 04:47:52;;;;;;;9.70;5.07;;;;;;;13.43;100.00;100185.66;5038645;28;20033;-77
2023/04/28 04:50:17;;;;;;;9.52;4.65;;;;;;;13.42;100.00;100184.00;5057083;28;20025;-77
2023/04/28 04:52:43;;;;;;;7.82;3.83;;;;;;;13.40;100.00;100189.09;5043624;28;20035;-77
2023/04/28 04:55:10;;;;;;;5.22;4.18;;;;;;;13.41;100.00;100183.19;5026798;28;20024;-77
2023/04/28 04:57:36;;;;;;;5.20;3.67;;;;;;;13.40;100.00;100184.34;5023838;28;20428;-77
2023/04/28 05:00:03;;;;;;;8.35;3.97;;;;;;;13.40;100.00;100189.09;5023217;28;20024;-77
2023/04/28 05:02:28;;;;;;;7.75;3.67;;;;;;;13.41;100.00;100185.97;5027448;28;20110;-77
2023/04/28 05:04:54;;;;;;;7.18;4.25;;;;;;;13.40;100.00;100184.34;5043116;28;20028;-77
2023/04/28 05:07:19;;;;;;;6.07;3.58;;;;;;;13.41;100.00;100185.97;5042326;28;20021;-77
2023/04/28 05:09:45;;;;;;;6.85;4.20;;;;;;;13.43;100.00;100190.41;5039286;28;20033;-77
2023/04/28 05:12:10;;;;;;;4.70;3.60;;;;;;;13.41;100.00;100194.34;5033908;28;20218;-77
2023/04/28 05:14:36;;;;;;;5.20;3.47;;;;;;;13.43;100.00;100193.19;5037083;28;20476;-77
2023/04/28 05:17:01;;;;;;;7.72;3.85;;;;;;;13.44;100.00;100197.63;5039950;28;20025;-77
2023/04/28 05:19:27;;;;;;;5.60;3.75;;;;;;;13.42;100.00;100200.75;5023698;28;20029;-77
2023/04/28 05:21:53;;;;;;;5.32;3.05;;;;;;;13.44;100.00;100200.44;5006763;28;20047;-77
2023/04/28 05:24:22;;;;;;;4.93;3.15;;;;;;;13.44;100.00;100197.63;5057601;28;20028;-77
2023/04/28 05:26:51;;;;;;;6.40;3.95;;;;;;;13.45;100.00;100200.09;5039726;28;20626;-77
2023/04/28 05:29:16;;;;;;;4.03;3.20;;;;;;;13.46;100.00;100210.13;5037985;28;20093;-77
2023/04/28 05:31:42;;;;;;;3.53;2.63;;;;;;;13.45;100.00;100216.84;5047931;28;20033;-77
2023/04/28 05:34:07;;;;;;;5.03;2.70;;;;;;;13.47;100.00;100210.94;5037810;28;20055;-77
2023/04/28 05:36:33;;;;;;;3.15;2.78;;;;;;;13.48;100.00;100218.16;5051285;28;20029;-77
2023/04/28 05:38:59;;;;;;;4.97;2.63;;;;;;;13.48;100.00;100224.56;5008135;28;20032;-77
2023/04/28 05:41:25;;;;;;;4.68;2.55;;;;;;;13.50;100.00;100221.47;5018724;28;20021;-77
2023/04/28 05:43:50;;;;;;;2.75;2.33;;;;;;;13.52;100.00;100217.22;5026280;28;20035;-77
2023/04/28 05:46:16;;;;;;;4.90;2.55;;;;;;;13.55;100.00;100226.91;5042509;28;20025;-77
2023/04/28 05:48:42;;;;;;;4.55;2.30;;;;;;;13.56;100.00;100212.63;5042452;28;20051;-77
2023/04/28 05:51:07;;;;;;;4.10;2.30;;;;;;;13.60;100.00;100223.97;5030016;28;20337;-77
2023/04/28 05:53:32;;;;;;;3.72;2.30;;;;;;;13.63;100.00;100224.16;5054070;28;20025;-77
2023/04/28 05:55:58;;;;;;;3.85;2.38;;;;;;;13.64;100.00;100217.41;5049339;28;20036;-77
2023/04/28 05:58:23;;;;;;;3.58;2.00;;;;;;;13.67;100.00;100224.31;5058621;28;20025;-77
2023/04/28 06:00:49;;;;;;;2.72;1.88;;;;;;;13.70;100.00;100220.88;5058660;28;20049;-77
2023/04/28 06:03:17;;;;;;;2.00;1.80;;;;;;;13.74;100.00;100218.28;5042183;28;20085;-77
2023/04/28 06:05:43;;;;;;;3.55;1.58;;;;;;;13.77;100.00;100224.03;5042020;28;20031;-77
2023/04/28 06:08:09;;;;;;;4.25;2.35;;;;;;;13.82;100.00;100223.91;5025799;28;20028;-77
2023/04/28 06:10:34;;;;;;;3.17;1.73;;;;;;;13.85;100.00;100230.81;5031552;28;20033;-77
2023/04/28 06:13:01;;;;;;;2.92;1.90;;;;;;;13.89;100.00;100225.41;5056627;28;20040;-77
2023/04/28 06:15:26;;;;;;;3.17;2.20;;;;;;;13.94;100.00;100239.22;5022329;28;20455;-77
2023/04/28 06:17:52;;;;;;;2.17;1.88;;;;;;;13.95;100.00;100236.09;5020344;28;20025;-77
2023/04/28 06:20:19;;;;;;;3.22;1.48;;;;;;;13.98;100.00;100235.44;5050389;28;20032;-77
2023/04/28 06:22:45;;;;;;;3.10;1.40;;;;;;;14.01;100.00;100242.34;5025994;28;20089;-77
2023/04/28 06:25:10;;;;;;;4.75;1.73;;;;;;;14.03;100.00;100232.50;5075319;28;20037;-78
2023/04/28 06:27:36;;;;;;;2.00;1.30;;;;;;;14.07;100.00;100238.28;5042006;28;20606;-77
2023/04/28 06:30:01;;;;;;;2.92;1.42;;;;;;;14.10;100.00;100246.00;5061419;28;20032;-77
2023/04/28 06:32:26;;;;;;;3.10;1.60;;;;;;;14.15;100.00;100245.00;5041715;28;20047;-77
2023/04/28 06:34:52;;;;;;;1.77;1.67;;;;;;;14.15;100.00;100239.44;5042018;28;20389;-77
2023/04/28 06:37:17;;;;;;;1.83;1.70;;;;;;;14.16;100.00;100247.50;5058302;28;20039;-77
2023/04/28 06:39:43;;;;;;;3.38;1.70;;;;;;;14.18;100.00;100252.75;5038643;28;20033;-77
2023/04/28 06:42:08;;;;;;;4.32;1.40;;;;;;;14.21;100.00;100263.28;5024141;28;20105;-77
2023/04/28 06:44:34;;;;;;;2.97;1.92;;;;;;;14.24;100.00;100252.28;5025103;28;20027;-77
2023/04/28 06:46:59;;;;;;;1.95;1.52;;;;;;;14.25;100.00;100267.06;5012835;28;20024;-78
2023/04/28 06:49:25;;;;;;;2.50;1.70;;;;;;;14.26;100.00;100266.75;5029854;28;20036;-78
2023/04/28 06:51:50;;;;;;;6.55;1.73;;;;;;;14.27;100.00;100264.78;5053680;28;20029;-77
2023/04/28 06:54:16;;;;;;;2.00;1.58;;;;;;;14.30;100.00;100270.53;5044317;28;20025;-77
2023/04/28 06:56:41;;;;;;;2.22;1.42;;;;;;;14.31;100.00;100271.34;5027559;28;20076;-77
2023/04/28 06:59:07;;;;;;;3.38;1.75;;;;;;;14.33;100.00;100274.66;5058476;28;20028;-78
2023/04/28 07:01:32;;;;;;;1.48;1.20;;;;;;;14.34;100.00;100267.91;5041015;28;20052;-77
2023/04/28 07:03:58;;;;;;;2.00;1.15;;;;;;;14.34;100.00;100276.28;5060737;28;20036;-77
2023/04/28 07:06:23;;;;;;;2.45;1.48;;;;;;;14.38;100.00;100274.50;5061571;28;20029;-77
2023/04/28 07:08:49;;;;;;;5.22;1.50;;;;;;;14.42;100.00;100269.88;5045468;28;20028;-77
2023/04/28 07:11:15;;;;;;;1.30;1.10;;;;;;;14.38;100.00;100271.69;5032388;28;20036;-77
2023/04/28 07:13:40;;;;;;;1.90;1.30;;;;;;;14.42;100.00;100275.47;5045567;28;20033;-77
2023/04/28 07:16:06;;;;;;;1.85;1.13;;;;;;;14.45;100.00;100279.59;5032084;28;20056;-77
2023/04/28 07:18:32;;;;;;;2.20;1.20;;;;;;;14.47;100.00;100283.72;5028794;28;20025;-77
2023/04/28 07:20:58;;;;;;;1.63;1.20;;;;;;;14.47;100.00;100274.50;5028797;28;20074;-77
2023/04/28 07:23:23;;;;;;;2.65;1.10;;;;;;;14.51;100.00;100269.91;5031540;28;20024;-77
2023/04/28 07:25:49;;;;;;;3.08;1.30;;;;;;;14.52;100.00;100269.63;5041777;28;20052;-77
2023/04/28 07:28:15;;;;;;;1.30;1.20;;;;;;;14.59;100.00;100265.50;5019414;28;20035;-77
2023/04/28 07:30:40;;;;;;;1.65;1.40;;;;;;;14.61;100.00;100264.03;5078328;28;20052;-77
2023/04/28 07:33:06;;;;;;;1.20;1.10;;;;;;;14.66;100.00;100272.25;5045221;28;20078;-77
2023/04/28 07:35:31;;;;;;;1.48;1.00;;;;;;;14.71;100.00;100268.50;5028403;28;20028;-77
2023/04/28 07:37:57;;;;;;;1.70;1.17;;;;;;;14.76;100.00;100265.50;5047787;28;20043;-77
2023/04/28 07:40:22;;;;;;;2.65;0.90;;;;;;;14.82;100.00;100261.44;5045189;28;20538;-77
2023/04/28 07:42:48;;;;;;;3.58;1.02;;;;;;;14.91;100.00;100270.63;5024959;28;20512;-77
2023/04/28 07:45:14;;;;;;;2.58;0.82;;;;;;;15.00;100.00;100259.44;5043304;28;20044;-77
2023/04/28 07:47:40;;;;;;;3.13;0.98;;;;;;;15.10;100.00;100269.47;5045068;28;20024;-77
2023/04/28 07:50:06;;;;;;;1.88;0.70;;;;;;;15.22;100.00;100271.59;5044712;28;20040;-77
2023/04/28 07:52:32;;;;;;;1.35;0.80;;;;;;;15.32;100.00;100271.25;5045040;28;20043;-77
2023/04/28 07:54:58;;;;;;;0.82;0.82;;;;;;;15.42;100.00;100280.13;5053478;28;20078;-77
2023/04/28 07:57:23;;;;;;;1.52;0.90;;;;;;;15.54;100.00;100276.63;5061486;28;20427;-77
2023/04/28 07:59:49;;;;;;;1.63;0.80;;;;;;;15.66;100.00;100289.94;5043078;28;20055;-78
2023/04/28 08:02:15;;;;;;;2.38;0.85;;;;;;;15.74;100.00;100291.94;5044451;28;20052;-77
2023/04/28 08:04:40;;;;;;;1.85;0.90;;;;;;;15.82;100.00;100293.88;5044629;28;20362;-77
2023/04/28 08:07:07;;;;;;;2.55;0.80;;;;;;;15.90;100.00;100294.19;5026892;28;20027;-77
2023/04/28 08:09:33;;;;;;;2.55;0.80;;;;;;;15.97;100.00;100295.31;5060978;28;20024;-77
2023/04/28 08:11:59;;;;;;;1.38;0.93;;;;;;;16.01;100.00;100303.84;5061141;28;20025;-77
2023/04/28 08:14:25;;;;;;;0.85;0.70;;;;;;;16.08;100.00;100315.38;5025983;28;20025;-77
2023/04/28 08:16:50;;;;;;;2.55;0.90;;;;;;;16.12;100.00;100310.72;5057701;28;20032;-77
2023/04/28 08:19:16;;;;;;;1.25;0.90;;;;;;;16.15;100.00;100310.06;5027450;28;20025;-77
2023/04/28 08:21:41;;;;;;;1.95;1.00;;;;;;;16.19;100.00;100308.22;5060920;28;20032;-77
2023/04/28 08:24:09;;;;;;;1.33;0.60;;;;;;;16.23;100.00;100313.97;5077485;28;20029;-77
2023/04/28 08:26:35;;;;;;;1.45;0.80;;;;;;;16.26;100.00;100316.09;5044411;28;20032;-77
2023/04/28 08:29:01;;;;;;;1.73;0.80;;;;;;;16.32;100.00;100325.94;5043439;28;20040;-77
2023/04/28 08:31:26;;;;;;;1.98;0.80;;;;;;;16.36;100.00;100312.13;5023987;28;20033;-77
2023/04/28 08:33:52;;;;;;;0.82;0.70;;;;;;;16.39;100.00;100317.84;5056771;28;20029;-76
2023/04/28 08:36:18;;;;;;;1.33;0.80;;;;;;;16.41;100.00;100311.88;5060432;28;20054;-77
2023/04/28 08:38:44;;;;;;;1.02;0.68;;;;;;;16.45;100.00;100313.69;5059867;28;20044;-77
2023/04/28 08:41:09;;;;;;;2.53;0.85;;;;;;;16.52;100.00;100313.19;5024101;28;20492;-77
2023/04/28 08:43:35;;;;;;;1.10;0.60;;;;;;;16.59;100.00;100324.66;5043790;28;20028;-76
2023/04/28 08:46:05;;;;;;;2.58;0.90;;;;;;;16.65;100.00;100328.91;5060127;28;20031;-77
2023/04/28 08:48:31;;;;;;;1.02;0.70;;;;;;;16.70;100.00;100323.09;5060417;28;20028;-77
2023/04/28 08:50:56;;;;;;;1.30;0.88;;;;;;;16.81;100.00;100326.38;5062522;28;20086;-77
2023/04/28 08:53:25;;;;;;;3.05;0.80;;;;;;;16.91;100.00;100327.94;5057958;28;20036;-77
2023/04/28 08:55:53;;;;;;;1.52;0.70;;;;;;;16.96;100.00;100331.34;5049941;28;20021;-77
2023/04/28 08:58:19;;;;;;;0.85;0.63;;;;;;;17.04;100.00;100332.47;5027187;28;20453;-75
2023/04/28 09:00:44;;;;;;;1.27;0.88;;;;;;;17.13;100.00;100341.66;5076356;28;20028;-77
2023/04/28 09:03:11;;;;;;;0.63;0.50;;;;;;;17.15;100.00;100339.28;5040624;28;20028;-77
2023/04/28 09:05:36;;;;;;;5.05;0.90;;;;;;;17.20;100.00;100346.69;5053264;28;20029;-77
2023/04/28 09:08:02;;;;;;;1.15;0.80;;;;;;;17.25;100.00;100348.50;5043657;28;20370;-77
2023/04/28 09:10:28;;;;;;;1.42;1.00;;;;;;;17.25;100.00;100351.28;5057351;28;20029;-77
2023/04/28 09:12:54;;;;;;;1.92;0.82;;;;;;;17.26;100.00;100352.94;5040219;28;20427;-77
2023/04/28 09:15:30;;;;;;;1.80;0.60;;;;;;;17.26;100.00;100356.56;5050497;28;20357;-77
2023/04/28 09:17:57;;;;;;;2.05;0.57;;;;;;;17.25;100.00;100362.53;5056171;28;20029;-77
2023/04/28 09:20:23;;;;;;;1.45;0.70;;;;;;;17.24;100.00;100361.69;5043009;28;20051;-77
2023/04/28 09:22:49;;;;;;;0.90;0.50;;;;;;;17.23;100.00;100364.84;5043407;28;20090;-77
2023/04/28 09:25:15;;;;;;;2.55;0.85;;;;;;;17.20;100.00;100360.72;5040514;28;20037;-77
2023/04/28 09:27:40;;;;;;;1.92;1.20;;;;;;;17.21;100.00;100373.59;5027156;28;20428;-77
2023/04/28 09:30:07;;;;;;;1.60;0.90;;;;;;;17.16;100.00;100363.41;5026075;28;20029;-77
2023/04/28 09:32:33;;;;;;;1.42;0.90;;;;;;;17.14;100.00;100374.16;5055433;28;20061;-77
2023/04/28 09:34:58;;;;;;;2.45;0.93;;;;;;;17.12;100.00;100376.47;5054564;28;20031;-77
2023/04/28 09:37:26;;;;;;;1.10;0.90;;;;;;;17.13;100.00;100378.13;5076364;28;20032;-77
2023/04/28 09:39:52;;;;;;;1.92;0.70;;;;;;;17.11;100.00;100376.81;5034915;28;20021;-77
2023/04/28 09:42:42;;;;;;;1.75;0.90;;;;;;;17.10;100.00;100373.16;5039508;28;20033;-77
2023/04/28 09:45:11;;;;;;;2.55;0.80;;;;;;;17.10;100.00;100378.78;5050556;28;20032;-77
2023/04/28 09:47:41;;;;;;;2.55;0.70;;;;;;;17.08;100.00;100385.94;5063115;28;20088;-77
2023/04/28 09:50:10;;;;;;;0.90;0.68;;;;;;;17.07;100.00;100385.09;5026434;28;20036;-77
2023/04/28 09:52:36;;;;;;;1.13;0.90;;;;;;;17.08;100.00;100386.75;5061856;28;20090;-77
2023/04/28 09:55:07;;;;;;;1.17;1.02;;;;;;;17.06;100.00;100375.03;5048062;28;20032;-77
2023/04/28 09:57:34;;;;;;;2.28;1.08;;;;;;;17.07;100.00;100390.69;5045305;28;20091;-77
2023/04/28 10:00:00;;;;;;;2.42;0.80;;;;;;;17.08;100.00;100372.72;5027434;28;20055;-77
2023/04/28 10:02:26;;;;;;;1.83;0.60;;;;;;;17.08;100.00;100372.72;5023886;28;20049;-77
2023/04/28 10:04:51;;;;;;;2.03;0.50;;;;;;;17.12;100.00;100372.84;5028649;28;20123;-77
2023/04/28 10:07:19;;;;;;;2.15;0.95;;;;;;;17.14;100.00;100374.16;5031922;28;20021;-76
2023/04/28 10:09:52;;;;;;;2.65;1.00;;;;;;;17.25;100.00;100363.34;5039752;28;20100;-76
2023/04/28 10:12:18;;;;;;;2.60;0.77;;;;;;;17.34;100.00;100375.31;5059956;28;20020;-77
2023/04/28 10:14:44;;;;;;;1.75;0.80;;;;;;;17.47;100.00;100376.19;5036345;28;20447;-77
2023/04/28 10:17:10;;;;;;;2.22;0.63;;;;;;;17.60;100.00;100375.06;5024565;28;20020;-77
2023/04/28 10:19:36;;;;;;;2.00;0.88;;;;;;;17.78;100.00;100374.91;5013082;28;20021;-77
2023/04/28 10:22:10;;;;;;;0.60;0.40;;;;;;;17.91;100.00;100379.41;5051130;28;20102;-77
2023/04/28 10:24:52;;;;;;;1.67;0.70;;;;;;;18.08;100.00;100382.06;5053655;28;20390;-77
2023/04/28 10:27:17;;;;;;;2.28;0.90;;;;;;;18.24;100.00;100387.81;5030265;28;20424;-77
2023/04/28 10:29:43;;;;;;;1.45;0.60;;;;;;;18.38;100.00;100390.28;5018422;28;20025;-77
2023/04/28 10:32:19;;;;;;;2.30;0.93;;;;;;;18.50;100.00;100401.56;5035231;28;20029;-77
2023/04/28 10:34:44;;;;;;;2.10;0.60;;;;;;;18.65;100.00;100396.41;5025864;28;20029;-77
2023/04/28 10:37:10;;;;;;;1.13;0.50;;;;;;;18.77;100.00;100392.78;5044390;28;20039;-77
2023/04/28 10:39:36;;;;;;;1.15;0.80;;;;;;;18.84;100.00;100390.22;5031608;28;20384;-77
2023/04/28 10:42:01;;;;;;;2.13;0.63;;;;;;;18.96;100.00;100393.81;5058549;28;20154;-77
2023/04/28 10:44:29;;;;;;;3.03;0.73;;;;;;;19.09;100.00;100393.81;5053832;28;20033;-77
2023/04/28 10:47:05;;;;;;;0.98;0.50;;;;;;;19.23;100.00;100394.25;5057762;28;20029;-77
2023/04/28 10:50:00;;;;;;;1.48;0.55;;;;;;;19.39;100.00;100392.34;5055142;28;20033;-77
2023/04/28 10:52:37;;;;;;;0.95;0.47;;;;;;;19.56;100.00;100393.22;5063904;28;20507;-77
2023/04/28 10:55:25;;;;;;;1.88;0.60;;;;;;;19.68;100.00;100387.56;5073888;28;20135;-77
2023/04/28 10:58:14;;;;;;;2.13;0.73;;;;;;;19.84;100.00;100388.44;5038418;28;20084;-77
2023/04/28 11:00:40;;;;;;;3.40;0.60;;;;;;;19.98;100.00;100384.38;5049481;28;20135;-79
2023/04/28 11:03:06;;;;;;;1.75;0.60;;;;;;;20.10;100.00;100398.41;5043410;28;20170;-77
2023/04/28 11:05:33;;;;;;;1.23;0.70;;;;;;;20.23;100.00;100396.31;5040328;28;20028;-77
2023/04/28 11:08:25;;;;;;;2.03;0.55;;;;;;;20.38;100.00;100394.69;5041892;28;20029;-77
2023/04/28 11:11:09;;;;;;;1.48;0.40;;;;;;;20.49;100.00;100390.16;5069826;28;20048;-77
2023/04/28 11:13:34;;;;;;;3.35;0.70;;;;;;;20.62;100.00;100394.53;5074693;28;20047;-77